createdAt,value
2023-08-30T00:01:28.774Z,100830.94
2023-08-30T00:03:30.547Z,100828.19
2023-08-30T00:05:32.513Z,100828.44
2023-08-30T00:07:34.129Z,100824.00
2023-08-30T00:09:35.980Z,100825.09
2023-08-30T00:11:37.537Z,100827.84
2023-08-30T00:13:39.928Z,100820.69
2023-08-30T00:15:41.885Z,100820.91
2023-08-30T00:17:45.166Z,100818.44
2023-08-30T00:19:47.126Z,100820.34
2023-08-30T00:21:48.765Z,100819.50
2023-08-30T00:23:50.612Z,100825.00
2023-08-30T00:25:52.231Z,100830.75
2023-08-30T00:27:53.816Z,100828.25
2023-08-30T00:29:55.982Z,100830.41
2023-08-30T00:31:57.960Z,100827.66
2023-08-30T00:34:01.006Z,100828.78
2023-08-30T00:36:02.578Z,100815.84
2023-08-30T00:38:04.492Z,100810.59
2023-08-30T00:40:07.445Z,100802.34
2023-08-30T00:42:09.081Z,100799.84
2023-08-30T00:44:11.245Z,100793.50
2023-08-30T00:46:14.042Z,100786.38
2023-08-30T00:48:17.015Z,100796.75
2023-08-30T00:50:20.991Z,100789.88
2023-08-30T00:52:22.629Z,100790.94
2023-08-30T00:54:24.888Z,100795.88
2023-08-30T00:56:28.489Z,100787.00
2023-08-30T00:58:30.456Z,100777.13
2023-08-30T01:00:33.156Z,100779.28
2023-08-30T01:02:35.270Z,100784.19
2023-08-30T01:04:37.158Z,100780.03
2023-08-30T01:06:40.171Z,100789.38
2023-08-30T01:08:43.996Z,100800.59
2023-08-30T01:10:59.721Z,100795.09
2023-08-30T01:13:10.273Z,100797.28
2023-08-30T01:15:16.054Z,100796.66
2023-08-30T01:17:18.805Z,100799.69
2023-08-30T01:19:38.364Z,100812.31
2023-08-30T01:21:54.469Z,100805.97
2023-08-30T01:24:00.435Z,100808.16
2023-08-30T01:26:11.278Z,100808.41
2023-08-30T01:28:17.267Z,100800.41
2023-08-30T01:30:21.892Z,100799.59
2023-08-30T01:32:26.175Z,100794.31
2023-08-30T01:34:28.418Z,100799.81
2023-08-30T01:36:31.228Z,100799.25
2023-08-30T01:38:33.785Z,100807.50
2023-08-30T01:40:39.676Z,100802.00
2023-08-30T01:42:44.503Z,100802.00
2023-08-30T01:44:47.645Z,100800.31
2023-08-30T01:46:50.790Z,100797.00
2023-08-30T01:48:53.303Z,100793.41
2023-08-30T01:50:56.163Z,100801.88
2023-08-30T01:52:58.197Z,100796.63
2023-08-30T01:55:01.992Z,100797.69
2023-08-30T01:57:03.810Z,100797.94
2023-08-30T01:59:05.678Z,100797.38
2023-08-30T02:01:09.854Z,100794.84
2023-08-30T02:03:12.780Z,100806.09
2023-08-30T02:05:14.560Z,100815.41
2023-08-30T02:07:23.331Z,100813.72
2023-08-30T02:09:30.992Z,100827.72
2023-08-30T02:11:35.833Z,100823.31
2023-08-30T02:13:39.132Z,100820.78
2023-08-30T02:15:42.872Z,100820.78
2023-08-30T02:17:47.572Z,100811.72
2023-08-30T02:19:50.860Z,100821.06
2023-08-30T02:21:52.858Z,100811.97
2023-08-30T02:23:54.606Z,100813.06
2023-08-30T02:25:56.219Z,100816.63
2023-08-30T02:27:58.146Z,100817.72
2023-08-30T02:30:00.299Z,100806.72
2023-08-30T02:32:02.165Z,100816.63
2023-08-30T02:34:05.712Z,100814.97
2023-08-30T02:36:07.555Z,100803.97
2023-08-30T02:38:09.739Z,100805.66
2023-08-30T02:40:12.791Z,100801.22
2023-08-30T02:42:14.484Z,100799.31
2023-08-30T02:44:16.292Z,100803.97
2023-08-30T02:46:18.073Z,100803.97
2023-08-30T02:48:19.720Z,100808.63
2023-08-30T02:50:23.104Z,100791.59
2023-08-30T02:52:24.745Z,100797.31
2023-08-30T02:54:26.399Z,100794.00
2023-08-30T02:56:28.327Z,100795.31
2023-08-30T02:58:32.690Z,100786.75
2023-08-30T03:00:35.750Z,100782.56
2023-08-30T03:02:40.210Z,100780.88
2023-08-30T03:04:41.942Z,100779.22
2023-08-30T03:06:45.187Z,100779.72
2023-08-30T03:08:46.840Z,100781.88
2023-08-30T03:10:48.524Z,100784.63
2023-08-30T03:12:50.564Z,100789.53
2023-08-30T03:14:52.420Z,100780.69
2023-08-30T03:16:54.053Z,100782.59
2023-08-30T03:18:55.835Z,100785.59
2023-08-30T03:21:01.604Z,100787.50
2023-08-30T03:23:04.690Z,100782.25
2023-08-30T03:25:07.244Z,100789.66
2023-08-30T03:27:08.911Z,100778.31
2023-08-30T03:29:10.862Z,100781.06
2023-08-30T03:31:13.866Z,100773.94
2023-08-30T03:33:15.670Z,100784.06
2023-08-30T03:35:17.535Z,100776.91
2023-08-30T03:37:19.537Z,100776.34
2023-08-30T03:39:24.119Z,100770.00
2023-08-30T03:41:25.688Z,100770.25
2023-08-30T03:43:27.512Z,100761.16
2023-08-30T03:45:29.122Z,100754.28
2023-08-30T03:47:30.736Z,100755.59
2023-08-30T03:49:32.873Z,100752.03
2023-08-30T03:51:34.574Z,100744.84
2023-08-30T03:53:36.190Z,100742.38
2023-08-30T03:55:39.470Z,100737.13
2023-08-30T03:57:41.180Z,100740.94
2023-08-30T03:59:44.007Z,100732.97
2023-08-30T04:01:45.864Z,100736.78
2023-08-30T04:03:47.524Z,100744.41
2023-08-30T04:05:49.550Z,100734.53
2023-08-30T04:07:51.117Z,100740.00
2023-08-30T04:09:52.757Z,100745.50
2023-08-30T04:11:56.143Z,100759.22
2023-08-30T04:13:57.796Z,100763.88
2023-08-30T04:15:59.728Z,100760.28
2023-08-30T04:18:02.140Z,100758.38
2023-08-30T04:20:05.432Z,100759.22
2023-08-30T04:22:08.312Z,100759.22
2023-08-30T04:24:10.173Z,100757.31
2023-08-30T04:26:11.841Z,100763.59
2023-08-30T04:28:14.886Z,100764.44
2023-08-30T04:30:16.759Z,100766.13
2023-08-30T04:32:18.669Z,100769.69
2023-08-30T04:34:20.280Z,100773.28
2023-08-30T04:36:23.653Z,100772.19
2023-08-30T04:38:25.737Z,100774.91
2023-08-30T04:40:27.809Z,100762.88
2023-08-30T04:42:31.716Z,100766.47
2023-08-30T04:44:34.754Z,100770.88
2023-08-30T04:46:36.770Z,100768.13
2023-08-30T04:48:38.456Z,100769.81
2023-08-30T04:50:40.436Z,100771.72
2023-08-30T04:52:42.412Z,100770.63
2023-08-30T04:54:44.164Z,100782.19
2023-08-30T04:56:46.013Z,100778.63
2023-08-30T04:58:47.855Z,100779.19
2023-08-30T05:00:50.950Z,100788.03
2023-08-30T05:02:52.688Z,100781.72
2023-08-30T05:04:54.465Z,100782.56
2023-08-30T05:06:56.388Z,100781.47
2023-08-30T05:08:58.287Z,100777.63
2023-08-30T05:11:00.151Z,100775.72
2023-08-30T05:13:01.797Z,100776.56
2023-08-30T05:15:04.425Z,100765.59
2023-08-30T05:17:08.259Z,100769.16
2023-08-30T05:19:09.898Z,100759.03
2023-08-30T05:21:11.569Z,100757.97
2023-08-30T05:23:13.488Z,100757.69
2023-08-30T05:25:15.421Z,100762.97
2023-08-30T05:27:17.023Z,100760.22
2023-08-30T05:29:18.750Z,100764.59
2023-08-30T05:31:20.941Z,100762.47
2023-08-30T05:33:25.330Z,100766.88
2023-08-30T05:35:29.129Z,100769.38
2023-08-30T05:37:30.813Z,100762.81
2023-08-30T05:39:32.649Z,100764.47
2023-08-30T05:41:34.467Z,100755.97
2023-08-30T05:43:38.212Z,100760.19
2023-08-30T05:45:40.997Z,100762.66
2023-08-30T05:47:43.014Z,100759.91
2023-08-30T05:49:46.469Z,100769.56
2023-08-30T05:51:48.379Z,100767.16
2023-08-30T05:53:50.067Z,100765.00
2023-08-30T05:55:53.449Z,100765.84
2023-08-30T05:57:55.129Z,100761.75
2023-08-30T05:59:57.059Z,100771.41
2023-08-30T06:01:58.711Z,100763.50
2023-08-30T06:04:00.566Z,100764.97
2023-08-30T06:06:03.726Z,100768.03
2023-08-30T06:08:05.660Z,100762.88
2023-08-30T06:10:08.810Z,100764.31
2023-08-30T06:12:10.644Z,100775.38
2023-08-30T06:14:12.600Z,100763.91
2023-08-30T06:16:14.448Z,100764.28
2023-08-30T06:18:16.382Z,100762.69
2023-08-30T06:20:18.085Z,100775.09
2023-08-30T06:22:21.236Z,100766.94
2023-08-30T06:24:23.845Z,100766.44
2023-08-30T06:26:26.086Z,100775.88
2023-08-30T06:28:28.004Z,100776.19
2023-08-30T06:30:30.349Z,100776.53
2023-08-30T06:32:32.198Z,100773.28
2023-08-30T06:34:34.123Z,100774.44
2023-08-30T06:36:35.701Z,100775.63
2023-08-30T06:38:38.886Z,100776.78
2023-08-30T06:40:44.913Z,100775.44
2023-08-30T06:42:46.560Z,100778.53
2023-08-30T06:44:48.212Z,100785.44
2023-08-30T06:46:49.852Z,100774.78
2023-08-30T06:48:51.625Z,100779.78
2023-08-30T06:50:53.258Z,100775.69
2023-08-30T06:52:54.910Z,100774.09
2023-08-30T06:54:58.444Z,100779.69
2023-08-30T06:57:01.611Z,100774.75
2023-08-30T06:59:03.461Z,100763.00
2023-08-30T07:01:05.154Z,100771.56
2023-08-30T07:03:09.426Z,100763.66
2023-08-30T07:05:10.976Z,100773.91
2023-08-30T07:07:13.755Z,100775.91
2023-08-30T07:09:15.840Z,100774.28
2023-08-30T07:11:32.729Z,100772.69
2023-08-30T07:13:35.836Z,100774.72
2023-08-30T07:15:39.711Z,100775.03
2023-08-30T07:17:52.757Z,100772.59
2023-08-30T07:20:03.374Z,100771.84
2023-08-30T07:22:05.388Z,100770.25
2023-08-30T07:24:08.747Z,100763.38
2023-08-30T07:26:10.890Z,100766.47
2023-08-30T07:28:15.585Z,100770.13
2023-08-30T07:30:18.512Z,100772.69
2023-08-30T07:32:20.185Z,100767.25
2023-08-30T07:34:22.298Z,100772.78
2023-08-30T07:36:30.535Z,100763.75
2023-08-30T07:38:39.692Z,100768.81
2023-08-30T07:40:41.358Z,100772.44
2023-08-30T07:42:45.343Z,100765.66
2023-08-30T07:44:48.948Z,100764.63
2023-08-30T07:46:50.881Z,100765.25
2023-08-30T07:48:52.756Z,100756.22
2023-08-30T07:50:57.182Z,100759.63
2023-08-30T07:52:59.283Z,100764.91
2023-08-30T07:55:01.417Z,100768.28
2023-08-30T07:57:03.813Z,100769.72
2023-08-30T07:59:05.469Z,100769.50
2023-08-30T08:01:08.716Z,100772.88
2023-08-30T08:03:10.668Z,100771.53
2023-08-30T08:05:12.700Z,100782.09
2023-08-30T08:07:14.874Z,100775.25
2023-08-30T08:09:16.536Z,100780.28
2023-08-30T08:11:18.177Z,100779.50
2023-08-30T08:13:20.113Z,100778.19
2023-08-30T08:15:22.009Z,100775.78
2023-08-30T08:17:25.035Z,100778.31
2023-08-30T08:19:26.695Z,100780.56
2023-08-30T08:21:28.292Z,100775.34
2023-08-30T08:23:29.925Z,100772.38
2023-08-30T08:25:31.793Z,100774.03
2023-08-30T08:27:33.495Z,100776.00
2023-08-30T08:29:35.369Z,100772.72
2023-08-30T08:31:37.245Z,100768.63
2023-08-30T08:33:40.353Z,100772.25
2023-08-30T08:35:42.091Z,100771.72
2023-08-30T08:37:43.772Z,100764.84
2023-08-30T08:39:45.666Z,100770.41
2023-08-30T08:41:47.851Z,100765.72
2023-08-30T08:43:50.406Z,100771.78
2023-08-30T08:45:52.252Z,100759.66
2023-08-30T08:47:54.975Z,100762.69
2023-08-30T08:49:59.243Z,100767.38
2023-08-30T08:52:06.982Z,100770.47
2023-08-30T08:54:14.948Z,100766.31
2023-08-30T08:56:18.315Z,100772.13
2023-08-30T08:58:19.991Z,100762.16
2023-08-30T09:00:21.947Z,100767.13
2023-08-30T09:02:24.561Z,100768.25
2023-08-30T09:04:26.769Z,100774.31
2023-08-30T09:06:29.873Z,100773.75
2023-08-30T09:08:32.555Z,100776.81
2023-08-30T09:10:34.587Z,100765.75
2023-08-30T09:12:36.685Z,100764.34
2023-08-30T09:14:38.542Z,100766.88
2023-08-30T09:16:40.306Z,100770.44
2023-08-30T09:18:43.521Z,100765.47
2023-08-30T09:20:47.974Z,100756.31
2023-08-30T09:22:51.074Z,100756.84
2023-08-30T09:24:52.710Z,100755.19
2023-08-30T09:26:55.557Z,100755.97
2023-08-30T09:29:01.777Z,100750.91
2023-08-30T09:31:17.390Z,100756.41
2023-08-30T09:33:24.099Z,100752.19
2023-08-30T09:35:25.797Z,100742.97
2023-08-30T09:37:27.742Z,100747.53
2023-08-30T09:39:30.887Z,100744.91
2023-08-30T09:41:32.787Z,100749.19
2023-08-30T09:43:34.713Z,100741.28
2023-08-30T09:45:36.875Z,100738.06
2023-08-30T09:47:41.290Z,100739.00
2023-08-30T09:49:46.062Z,100741.44
2023-08-30T09:51:48.973Z,100734.16
2023-08-30T09:54:06.101Z,100741.09
2023-08-30T09:56:13.926Z,100739.66
2023-08-30T09:58:19.686Z,100738.00
2023-08-30T10:00:23.503Z,100736.91
2023-08-30T10:02:27.407Z,100739.34
2023-08-30T10:04:31.020Z,100738.25
2023-08-30T10:06:34.674Z,100735.78
2023-08-30T10:08:37.244Z,100737.19
2023-08-30T10:10:40.590Z,100745.00
2023-08-30T10:12:53.361Z,100741.66
2023-08-30T10:15:04.384Z,100745.03
2023-08-30T10:17:07.606Z,100738.66
2023-08-30T10:19:14.133Z,100736.19
2023-08-30T10:21:18.704Z,100730.09
2023-08-30T10:23:22.297Z,100731.75
2023-08-30T10:25:28.724Z,100731.47
2023-08-30T10:27:32.897Z,100730.31
2023-08-30T10:29:37.774Z,100731.69
2023-08-30T10:31:39.876Z,100732.50
2023-08-30T10:33:50.657Z,100731.94
2023-08-30T10:35:52.845Z,100735.81
2023-08-30T10:38:00.033Z,100729.44
2023-08-30T10:40:03.159Z,100728.09
2023-08-30T10:42:12.077Z,100733.66
2023-08-30T10:44:15.438Z,100730.31
2023-08-30T10:46:18.791Z,100735.03
2023-08-30T10:48:21.096Z,100738.66
2023-08-30T10:50:30.248Z,100746.69
2023-08-30T10:52:31.854Z,100743.09
2023-08-30T10:54:39.039Z,100749.16
2023-08-30T10:56:56.563Z,100742.72
2023-08-30T10:58:58.415Z,100745.81
2023-08-30T11:01:00.990Z,100750.53
2023-08-30T11:03:05.394Z,100748.59
2023-08-30T11:05:09.547Z,100747.78
2023-08-30T11:07:12.810Z,100750.22
2023-08-30T11:09:15.562Z,100750.22
2023-08-30T11:11:17.438Z,100745.50
2023-08-30T11:13:19.203Z,100742.13
2023-08-30T11:15:21.100Z,100744.88
2023-08-30T11:17:23.142Z,100736.16
2023-08-30T11:19:31.100Z,100741.06
2023-08-30T11:21:34.863Z,100737.66
2023-08-30T11:23:36.718Z,100740.28
2023-08-30T11:25:38.643Z,100734.59
2023-08-30T11:27:41.020Z,100732.84
2023-08-30T11:29:42.903Z,100739.06
2023-08-30T11:31:45.967Z,100735.34
2023-08-30T11:33:54.378Z,100733.22
2023-08-30T11:35:57.554Z,100727.28
2023-08-30T11:38:00.721Z,100723.28
2023-08-30T11:40:03.917Z,100722.09
2023-08-30T11:42:17.222Z,100726.41
2023-08-30T11:44:20.820Z,100720.25
2023-08-30T11:46:22.902Z,100725.75
2023-08-30T11:48:24.727Z,100723.16
2023-08-30T11:50:28.243Z,100721.97
2023-08-30T11:52:36.467Z,100728.59
2023-08-30T11:54:38.599Z,100732.41
2023-08-30T11:56:40.295Z,100725.31
2023-08-30T11:58:42.154Z,100727.41
2023-08-30T12:00:43.863Z,100724.22
2023-08-30T12:02:47.438Z,100713.78
2023-08-30T12:04:49.773Z,100715.88
2023-08-30T12:06:54.828Z,100714.97
2023-08-30T12:09:00.265Z,100710.72
2023-08-30T12:11:03.083Z,100708.25
2023-08-30T12:13:04.696Z,100709.31
2023-08-30T12:15:09.904Z,100711.47
2023-08-30T12:17:11.813Z,100709.19
2023-08-30T12:19:15.749Z,100709.38
2023-08-30T12:21:19.107Z,100705.50
2023-08-30T12:23:22.940Z,100712.72
2023-08-30T12:25:26.529Z,100707.16
2023-08-30T12:27:28.624Z,100706.84
2023-08-30T12:29:30.219Z,100696.22
2023-08-30T12:31:32.414Z,100704.78
2023-08-30T12:33:34.701Z,100698.09
2023-08-30T12:35:36.450Z,100698.88
2023-08-30T12:37:38.288Z,100701.09
2023-08-30T12:39:39.917Z,100696.34
2023-08-30T12:41:43.030Z,100703.25
2023-08-30T12:43:45.019Z,100703.44
2023-08-30T12:45:47.686Z,100703.44
2023-08-30T12:47:49.554Z,100697.03
2023-08-30T12:49:51.474Z,100700.66
2023-08-30T12:51:53.350Z,100698.16
2023-08-30T12:53:55.216Z,100703.25
2023-08-30T12:55:56.849Z,100700.25
2023-08-30T12:57:59.886Z,100706.13
2023-08-30T13:00:01.836Z,100702.84
2023-08-30T13:02:03.595Z,100694.13
2023-08-30T13:04:05.680Z,100701.09
2023-08-30T13:06:07.554Z,100703.13
2023-08-30T13:08:09.245Z,100690.22
2023-08-30T13:10:11.675Z,100695.97
2023-08-30T13:12:13.547Z,100691.78
2023-08-30T13:14:17.048Z,100695.06
2023-08-30T13:16:19.006Z,100694.75
2023-08-30T13:18:20.737Z,100688.34
2023-08-30T13:20:22.652Z,100684.75
2023-08-30T13:22:24.921Z,100679.78
2023-08-30T13:24:26.567Z,100687.41
2023-08-30T13:26:28.200Z,100685.59
2023-08-30T13:28:30.087Z,100688.47
2023-08-30T13:30:33.265Z,100683.31
2023-08-30T13:32:34.937Z,100684.53
2023-08-30T13:34:36.788Z,100684.63
2023-08-30T13:36:38.445Z,100690.31
2023-08-30T13:38:40.123Z,100690.63
2023-08-30T13:40:41.772Z,100689.59
2023-08-30T13:42:43.585Z,100686.59
2023-08-30T13:44:46.185Z,100690.31
2023-08-30T13:46:51.190Z,100692.34
2023-08-30T13:48:52.862Z,100692.47
2023-08-30T13:50:54.722Z,100692.84
2023-08-30T13:52:56.369Z,100693.78
2023-08-30T13:54:58.030Z,100695.00
2023-08-30T13:57:00.240Z,100690.88
2023-08-30T13:59:01.814Z,100682.31
2023-08-30T14:01:03.689Z,100688.50
2023-08-30T14:03:07.078Z,100689.91
2023-08-30T14:05:09.785Z,100679.09
2023-08-30T14:07:11.481Z,100681.66
2023-08-30T14:09:13.621Z,100684.50
2023-08-30T14:11:15.501Z,100677.59
2023-08-30T14:13:17.371Z,100677.06
2023-08-30T14:15:19.449Z,100686.84
2023-08-30T14:17:23.488Z,100678.81
2023-08-30T14:19:28.391Z,100689.19
2023-08-30T14:21:30.335Z,100682.59
2023-08-30T14:23:32.386Z,100682.69
2023-08-30T14:25:34.024Z,100682.75
2023-08-30T14:27:35.940Z,100683.66
2023-08-30T14:29:38.088Z,100675.09
2023-08-30T14:31:39.841Z,100674.59
2023-08-30T14:33:44.523Z,100679.09
2023-08-30T14:35:48.159Z,100676.09
2023-08-30T14:37:50.580Z,100669.16
2023-08-30T14:39:54.476Z,100671.72
2023-08-30T14:41:56.139Z,100672.66
2023-08-30T14:43:57.790Z,100679.13
2023-08-30T14:46:09.657Z,100678.06
2023-08-30T14:48:14.236Z,100676.97
2023-08-30T14:50:16.261Z,100674.81
2023-08-30T14:52:20.183Z,100676.81
2023-08-30T14:54:21.843Z,100672.16
2023-08-30T14:56:23.604Z,100675.03
2023-08-30T14:58:25.429Z,100667.56
2023-08-30T15:00:27.811Z,100673.19
2023-08-30T15:02:29.576Z,100668.56
2023-08-30T15:04:31.215Z,100675.50
2023-08-30T15:06:32.887Z,100673.06
2023-08-30T15:08:36.165Z,100672.28
2023-08-30T15:10:38.167Z,100677.00
2023-08-30T15:12:40.154Z,100675.66
2023-08-30T15:14:41.929Z,100673.72
2023-08-30T15:16:43.685Z,100674.31
2023-08-30T15:18:45.338Z,100669.03
2023-08-30T15:20:47.342Z,100663.78
2023-08-30T15:22:49.235Z,100668.81
2023-08-30T15:24:53.755Z,100666.34
2023-08-30T15:26:57.957Z,100671.13
2023-08-30T15:28:59.663Z,100668.38
2023-08-30T15:31:01.490Z,100677.06
2023-08-30T15:33:03.759Z,100663.00
2023-08-30T15:35:06.436Z,100667.53
2023-08-30T15:37:08.118Z,100666.25
2023-08-30T15:39:09.936Z,100668.03
2023-08-30T15:41:13.834Z,100670.59
2023-08-30T15:43:15.857Z,100672.88
2023-08-30T15:45:17.798Z,100675.19
2023-08-30T15:47:19.565Z,100675.50
2023-08-30T15:49:21.208Z,100672.22
2023-08-30T15:51:24.930Z,100672.28
2023-08-30T15:53:27.665Z,100673.13
2023-08-30T15:55:29.277Z,100671.78
2023-08-30T15:57:33.384Z,100665.97
2023-08-30T15:59:35.237Z,100661.31
2023-08-30T16:01:37.637Z,100657.72
2023-08-30T16:03:39.988Z,100658.06
2023-08-30T16:05:41.738Z,100656.97
2023-08-30T16:07:43.479Z,100658.16
2023-08-30T16:09:45.135Z,100646.81
2023-08-30T16:11:46.805Z,100651.28
2023-08-30T16:13:50.432Z,100652.44
2023-08-30T16:15:52.694Z,100656.34
2023-08-30T16:17:54.933Z,100655.25
2023-08-30T16:19:56.689Z,100658.59
2023-08-30T16:21:58.585Z,100658.34
2023-08-30T16:24:00.641Z,100655.84
2023-08-30T16:26:02.258Z,100658.38
2023-08-30T16:28:04.552Z,100663.63
2023-08-30T16:30:09.250Z,100659.50
2023-08-30T16:32:10.921Z,100661.44
2023-08-30T16:34:13.866Z,100668.06
2023-08-30T16:36:15.922Z,100660.91
2023-08-30T16:38:17.515Z,100658.41
2023-08-30T16:40:19.621Z,100660.66
2023-08-30T16:42:21.295Z,100658.16
2023-08-30T16:46:26.898Z,100662.59
2023-08-30T16:48:29.040Z,100660.13
2023-08-30T16:50:30.877Z,100657.63
2023-08-30T16:52:32.872Z,100657.63
2023-08-30T16:54:35.156Z,100655.69
2023-08-30T16:56:37.342Z,100654.03
2023-08-30T16:58:39.439Z,100650.44
2023-08-30T17:00:41.272Z,100653.50
2023-08-30T17:02:44.635Z,100651.00
2023-08-30T17:04:46.404Z,100654.88
2023-08-30T17:06:48.158Z,100659.63
2023-08-30T17:08:50.521Z,100656.28
2023-08-30T17:10:52.456Z,100661.00
2023-08-30T17:12:54.135Z,100668.78
2023-08-30T17:14:56.012Z,100662.66
2023-08-30T17:16:57.942Z,100662.97
2023-08-30T17:19:01.176Z,100661.88
2023-08-30T17:21:02.792Z,100650.53
2023-08-30T17:23:04.742Z,100651.91
2023-08-30T17:25:06.742Z,100651.66
2023-08-30T17:27:11.175Z,100653.06
2023-08-30T17:29:13.690Z,100651.97
2023-08-30T17:31:15.430Z,100658.06
2023-08-30T17:33:17.263Z,100648.41
2023-08-30T17:35:20.725Z,100649.78
2023-08-30T17:37:22.602Z,100657.81
2023-08-30T17:39:24.854Z,100654.78
2023-08-30T17:41:26.804Z,100650.91
2023-08-30T17:43:28.646Z,100660.09
2023-08-30T17:45:31.650Z,100656.47
2023-08-30T17:47:33.310Z,100650.66
2023-08-30T17:49:35.338Z,100650.66
2023-08-30T17:51:38.558Z,100655.91
2023-08-30T17:53:40.703Z,100661.19
2023-08-30T17:55:42.352Z,100657.63
2023-08-30T17:57:44.198Z,100659.28
2023-08-30T17:59:46.699Z,100659.00
2023-08-30T18:01:50.859Z,100652.38
2023-08-30T18:03:54.663Z,100655.13
2023-08-30T18:05:59.894Z,100655.44
2023-08-30T18:08:04.568Z,100650.47
2023-08-30T18:10:07.709Z,100649.34
2023-08-30T18:12:09.481Z,100642.72
2023-08-30T18:14:11.451Z,100647.97
2023-08-30T18:16:14.411Z,100651.56
2023-08-30T18:18:16.260Z,100645.75
2023-08-30T18:20:18.168Z,100661.78
2023-08-30T18:22:19.803Z,100660.97
2023-08-30T18:24:23.396Z,100668.97
2023-08-30T18:26:27.927Z,100668.97
2023-08-30T18:28:34.344Z,100680.53
2023-08-30T18:30:36.506Z,100678.31
2023-08-30T18:32:38.596Z,100672.78
2023-08-30T18:34:40.962Z,100680.53
2023-08-30T18:36:42.631Z,100681.09
2023-08-30T18:38:44.205Z,100677.19
2023-08-30T18:40:50.173Z,100676.09
2023-08-30T18:42:53.705Z,100684.09
2023-08-30T18:44:55.702Z,100675.22
2023-08-30T18:46:57.605Z,100683.22
2023-08-30T18:49:01.102Z,100675.50
2023-08-30T18:51:03.126Z,100686.00
2023-08-30T18:53:04.937Z,100682.13
2023-08-30T18:55:08.134Z,100683.47
2023-08-30T18:57:12.275Z,100686.78
2023-08-30T18:59:14.340Z,100689.25
2023-08-30T19:01:16.055Z,100693.41
2023-08-30T19:03:18.035Z,100692.03
2023-08-30T19:05:19.972Z,100697.81
2023-08-30T19:07:22.032Z,100694.50
2023-08-30T19:09:25.096Z,100694.75
2023-08-30T19:11:29.716Z,100692.25
2023-08-30T19:13:33.165Z,100687.00
2023-08-30T19:15:35.377Z,100680.09
2023-08-30T19:17:37.390Z,100681.47
2023-08-30T19:19:43.005Z,100689.19
2023-08-30T19:21:44.844Z,100688.91
2023-08-30T19:23:49.721Z,100682.25
2023-08-30T19:25:53.289Z,100684.72
2023-08-30T19:27:55.113Z,100683.31
2023-08-30T19:29:58.704Z,100680.84
2023-08-30T19:32:02.441Z,100681.34
2023-08-30T19:34:05.780Z,100678.84
2023-08-30T19:36:07.847Z,100678.56
2023-08-30T19:38:10.227Z,100680.19
2023-08-30T19:40:11.994Z,100684.03
2023-08-30T19:42:13.942Z,100677.41
2023-08-30T19:44:16.504Z,100681.28
2023-08-30T19:46:19.697Z,100671.03
2023-08-30T19:48:21.808Z,100668.81
2023-08-30T19:50:23.764Z,100671.28
2023-08-30T19:52:26.587Z,100667.13
2023-08-30T19:54:28.452Z,100672.09
2023-08-30T19:56:31.952Z,100668.78
2023-08-30T19:58:33.836Z,100674.53
2023-08-30T20:00:36.828Z,100668.44
2023-08-30T20:02:40.091Z,100662.38
2023-08-30T20:04:43.048Z,100668.44
2023-08-30T20:06:44.704Z,100665.94
2023-08-30T20:08:48.064Z,100659.03
2023-08-30T20:10:49.871Z,100663.72
2023-08-30T20:12:51.507Z,100654.06
2023-08-30T20:14:53.146Z,100656.22
2023-08-30T20:16:54.751Z,100656.75
2023-08-30T20:19:00.501Z,100655.09
2023-08-30T20:21:02.453Z,100652.03
2023-08-30T20:23:04.873Z,100651.75
2023-08-30T20:25:07.214Z,100655.63
2023-08-30T20:27:09.239Z,100656.41
2023-08-30T20:29:11.076Z,100651.44
2023-08-30T20:31:13.237Z,100654.69
2023-08-30T20:33:15.492Z,100648.06
2023-08-30T20:35:18.992Z,100659.59
2023-08-30T20:37:21.053Z,100649.09
2023-08-30T20:39:22.997Z,100652.41
2023-08-30T20:41:25.056Z,100649.31
2023-08-30T20:43:26.934Z,100650.69
2023-08-30T20:45:28.575Z,100653.94
2023-08-30T20:47:30.373Z,100653.63
2023-08-30T20:49:32.582Z,100657.75
2023-08-30T20:51:36.152Z,100657.44
2023-08-30T20:53:39.828Z,100664.31
2023-08-30T20:55:43.005Z,100656.31
2023-08-30T20:57:45.679Z,100657.38
2023-08-30T20:59:47.302Z,100656.00
2023-08-30T21:01:49.257Z,100658.19
2023-08-30T21:03:51.071Z,100652.38
2023-08-30T21:05:53.401Z,100658.97
2023-08-30T21:07:56.457Z,100658.66
2023-08-30T21:09:58.128Z,100648.19
2023-08-30T21:11:59.993Z,100647.59
2023-08-30T21:14:01.588Z,100648.97
2023-08-30T21:16:03.966Z,100653.06
2023-08-30T21:18:05.895Z,100643.38
2023-08-30T21:20:08.688Z,100646.94
2023-08-30T21:22:10.575Z,100651.31
2023-08-30T21:24:13.716Z,100642.75
2023-08-30T21:26:15.616Z,100638.00
2023-08-30T21:28:18.823Z,100641.53
2023-08-30T21:30:20.989Z,100634.03
2023-08-30T21:32:22.855Z,100630.13
2023-08-30T21:34:24.701Z,100632.59
2023-08-30T21:36:26.694Z,100633.09
2023-08-30T21:38:28.534Z,100636.38
2023-08-30T21:40:31.625Z,100636.06
2023-08-30T21:42:33.642Z,100622.22
2023-08-30T21:44:35.718Z,100630.97
2023-08-30T21:46:37.443Z,100627.06
2023-08-30T21:48:39.340Z,100622.09
2023-08-30T21:50:41.520Z,100628.13
2023-08-30T21:52:43.647Z,100618.47
2023-08-30T21:54:45.737Z,100617.03
2023-08-30T21:56:49.038Z,100618.13
2023-08-30T21:58:50.740Z,100622.22
2023-08-30T22:00:52.884Z,100609.84
2023-08-30T22:02:54.972Z,100619.44
2023-08-30T22:04:56.839Z,100615.25
2023-08-30T22:06:58.428Z,100610.03
2023-08-30T22:09:00.779Z,100611.34
2023-08-30T22:11:07.509Z,100603.38
2023-08-30T22:13:10.744Z,100607.22
2023-08-30T22:15:14.087Z,100607.72
2023-08-30T22:17:15.740Z,100604.38
2023-08-30T22:19:17.435Z,100601.91
2023-08-30T22:21:19.382Z,100602.44
2023-08-30T22:23:21.947Z,100601.84
2023-08-30T22:25:23.796Z,100601.00
2023-08-30T22:27:25.675Z,100592.19
2023-08-30T22:29:29.528Z,100597.69
2023-08-30T22:31:31.315Z,100596.25
2023-08-30T22:33:33.458Z,100597.38
2023-08-30T22:35:36.899Z,100594.84
2023-08-30T22:37:39.238Z,100600.63
2023-08-30T22:39:41.625Z,100596.44
2023-08-30T22:41:43.566Z,100595.88
2023-08-30T22:43:45.293Z,100598.88
2023-08-30T22:45:48.439Z,100594.72
2023-08-30T22:47:50.448Z,100594.97
2023-08-30T22:49:52.119Z,100600.97
2023-08-30T22:51:55.006Z,100603.16
2023-08-30T22:53:58.602Z,100597.34
2023-08-30T22:56:04.909Z,100596.75
2023-08-30T22:58:06.530Z,100595.59
2023-08-30T23:00:09.668Z,100603.50
2023-08-30T23:02:13.416Z,100597.44
2023-08-30T23:04:15.269Z,100599.88
2023-08-30T23:06:17.191Z,100602.84
2023-08-30T23:08:18.850Z,100597.63
2023-08-30T23:10:21.426Z,100589.63
2023-08-30T23:12:24.299Z,100592.06
2023-08-30T23:14:26.210Z,100590.63
2023-08-30T23:16:28.617Z,100594.94
2023-08-30T23:18:32.023Z,100590.78
2023-08-30T23:20:34.444Z,100586.88
2023-08-30T23:22:36.349Z,100580.81
2023-08-30T23:24:38.028Z,100575.56